sensor_id;sensor_type;location;lat;lon;timestamp;P1;P2;P0
77516;PMS7003;68414;53.946;27.634;2023-03-25T00:00:40;30.549999;29.183332;19.450001
77516;PMS7003;68414;53.946;27.634;2023-03-25T00:01:40;31.866667;29.600000;20.233334
77516;PMS7003;68414;53.946;27.634;2023-03-25T00:03:41;30.366667;28.233334;19.633333
77516;PMS7003;68414;53.946;27.634;2023-03-25T00:04:41;30.966667;29.549999;19.350000
77516;PMS7003;68414;53.946;27.634;2023-03-25T00:05:40;29.416666;28.400000;18.983334
77516;PMS7003;68414;53.946;27.634;2023-03-25T00:06:40;31.083334;28.850000;19.983334
77516;PMS7003;68414;53.946;27.634;2023-03-25T00:07:41;31.350000;29.016666;19.500000
77516;PMS7003;68414;53.946;27.634;2023-03-25T00:08:41;28.866667;27.533333;17.950001
77516;PMS7003;68414;53.946;27.634;2023-03-25T00:09:40;28.683332;26.700001;18.650000
77516;PMS7003;68414;53.946;27.634;2023-03-25T00:10:41;27.799999;27.366667;18.566668
77516;PMS7003;68414;53.946;27.634;2023-03-25T00:11:40;31.483334;28.833334;18.633333
77516;PMS7003;68414;53.946;27.634;2023-03-25T00:12:41;28.066668;26.916666;19.116667
77516;PMS7003;68414;53.946;27.634;2023-03-25T00:13:40;28.183332;26.283333;18.049999
77516;PMS7003;68414;53.946;27.634;2023-03-25T00:14:41;27.200001;25.350000;17.000000
77516;PMS7003;68414;53.946;27.634;2023-03-25T00:15:42;28.383333;26.816668;18.450001
77516;PMS7003;68414;53.946;27.634;2023-03-25T00:16:40;29.683332;27.200001;18.299999
77516;PMS7003;68414;53.946;27.634;2023-03-25T00:17:41;27.483334;26.250000;18.200001
77516;PMS7003;68414;53.946;27.634;2023-03-25T00:18:41;27.083334;25.866667;17.533333
77516;PMS7003;68414;53.946;27.634;2023-03-25T00:19:40;27.616667;26.283333;17.700001
77516;PMS7003;68414;53.946;27.634;2023-03-25T00:20:40;25.216667;23.150000;16.283333
77516;PMS7003;68414;53.946;27.634;2023-03-25T00:21:41;24.400000;23.116667;17.083334
77516;PMS7003;68414;53.946;27.634;2023-03-25T00:22:42;26.700001;25.766666;16.850000
77516;PMS7003;68414;53.946;27.634;2023-03-25T00:23:42;26.500000;24.799999;16.366667
77516;PMS7003;68414;53.946;27.634;2023-03-25T00:24:41;23.483334;23.049999;16.466667
77516;PMS7003;68414;53.946;27.634;2023-03-25T00:25:41;23.583334;23.000000;16.850000
77516;PMS7003;68414;53.946;27.634;2023-03-25T00:26:40;24.883333;22.733334;15.466666
77516;PMS7003;68414;53.946;27.634;2023-03-25T00:27:40;21.850000;20.950001;15.933333
77516;PMS7003;68414;53.946;27.634;2023-03-25T00:28:41;21.566668;21.166666;14.666667
77516;PMS7003;68414;53.946;27.634;2023-03-25T00:29:40;22.783333;22.233334;15.583333
77516;PMS7003;68414;53.946;27.634;2023-03-25T00:30:42;19.850000;19.366667;13.783334
77516;PMS7003;68414;53.946;27.634;2023-03-25T00:31:41;19.216667;18.516666;13.833333
77516;PMS7003;68414;53.946;27.634;2023-03-25T00:32:40;21.866667;21.650000;14.233334
77516;PMS7003;68414;53.946;27.634;2023-03-25T00:33:41;19.783333;19.716667;14.416667
77516;PMS7003;68414;53.946;27.634;2023-03-25T00:34:40;19.900000;19.400000;13.250000
77516;PMS7003;68414;53.946;27.634;2023-03-25T00:35:41;19.983334;18.683332;13.850000
77516;PMS7003;68414;53.946;27.634;2023-03-25T00:36:40;20.783333;19.466667;14.066667
77516;PMS7003;68414;53.946;27.634;2023-03-25T00:37:41;19.850000;18.933332;13.966666
77516;PMS7003;68414;53.946;27.634;2023-03-25T00:38:40;21.616667;21.450001;14.883333
77516;PMS7003;68414;53.946;27.634;2023-03-25T00:39:40;18.566668;17.850000;12.466666
77516;PMS7003;68414;53.946;27.634;2023-03-25T00:40:40;19.266666;19.083334;13.183333
77516;PMS7003;68414;53.946;27.634;2023-03-25T00:41:40;19.816668;19.016666;13.416667
77516;PMS7003;68414;53.946;27.634;2023-03-25T00:42:40;18.299999;17.966667;12.783334
77516;PMS7003;68414;53.946;27.634;2023-03-25T00:43:40;19.700001;18.883333;13.250000
77516;PMS7003;68414;53.946;27.634;2023-03-25T00:44:41;18.483334;17.850000;13.350000
77516;PMS7003;68414;53.946;27.634;2023-03-25T00:45:40;19.333334;19.083334;12.983334
77516;PMS7003;68414;53.946;27.634;2023-03-25T00:46:41;19.966667;19.516666;13.933333
77516;PMS7003;68414;53.946;27.634;2023-03-25T00:47:41;19.200001;18.350000;12.783334
77516;PMS7003;68414;53.946;27.634;2023-03-25T00:48:41;20.500000;19.150000;12.466666
77516;PMS7003;68414;53.946;27.634;2023-03-25T00:49:40;19.783333;18.750000;12.483334
77516;PMS7003;68414;53.946;27.634;2023-03-25T00:50:40;19.066668;17.450001;12.733334
77516;PMS7003;68414;53.946;27.634;2023-03-25T00:51:40;17.350000;16.483334;10.883333
77516;PMS7003;68414;53.946;27.634;2023-03-25T00:52:40;18.166666;17.250000;12.400000
77516;PMS7003;68414;53.946;27.634;2023-03-25T00:53:40;16.933332;16.049999;12.016666
77516;PMS7003;68414;53.946;27.634;2023-03-25T00:54:41;18.083334;17.583334;13.366667
77516;PMS7003;68414;53.946;27.634;2023-03-25T00:55:40;16.316668;15.650000;11.000000
77516;PMS7003;68414;53.946;27.634;2023-03-25T00:56:40;17.066668;16.200001;11.250000
77516;PMS7003;68414;53.946;27.634;2023-03-25T00:57:42;15.833333;15.716666;11.416667
77516;PMS7003;68414;53.946;27.634;2023-03-25T00:58:40;17.833334;16.900000;12.500000
77516;PMS7003;68414;53.946;27.634;2023-03-25T00:59:40;17.200001;15.983334;11.383333
77516;PMS7003;68414;53.946;27.634;2023-03-25T01:00:40;16.750000;16.400000;11.683333
77516;PMS7003;68414;53.946;27.634;2023-03-25T01:01:40;17.150000;16.616667;11.650000
77516;PMS7003;68414;53.946;27.634;2023-03-25T01:02:41;17.950001;16.416666;11.966666
77516;PMS7003;68414;53.946;27.634;2023-03-25T01:03:41;18.466667;18.133333;11.966666
77516;PMS7003;68414;53.946;27.634;2023-03-25T01:04:41;17.466667;16.833334;11.750000
77516;PMS7003;68414;53.946;27.634;2023-03-25T01:05:40;17.750000;17.450001;12.566667
77516;PMS7003;68414;53.946;27.634;2023-03-25T01:06:41;17.533333;16.799999;11.816667
77516;PMS7003;68414;53.946;27.634;2023-03-25T01:07:40;17.916666;16.816668;12.016666
77516;PMS7003;68414;53.946;27.634;2023-03-25T01:08:42;17.766666;16.216667;11.316667
77516;PMS7003;68414;53.946;27.634;2023-03-25T01:09:41;17.450001;16.033333;11.116667
77516;PMS7003;68414;53.946;27.634;2023-03-25T01:10:40;17.233334;17.033333;11.300000
77516;PMS7003;68414;53.946;27.634;2023-03-25T01:11:42;19.700001;18.600000;12.166667
77516;PMS7003;68414;53.946;27.634;2023-03-25T01:12:40;16.616667;16.299999;11.533334
77516;PMS7003;68414;53.946;27.634;2023-03-25T01:13:41;17.400000;16.983334;12.350000
77516;PMS7003;68414;53.946;27.634;2023-03-25T01:14:41;16.216667;15.833333;11.283334
77516;PMS7003;68414;53.946;27.634;2023-03-25T01:15:40;19.366667;18.299999;11.866667
77516;PMS7003;68414;53.946;27.634;2023-03-25T01:16:41;17.366667;16.633333;11.983334
77516;PMS7003;68414;53.946;27.634;2023-03-25T01:17:40;16.100000;16.100000;11.733334
77516;PMS7003;68414;53.946;27.634;2023-03-25T01:18:40;19.166666;18.183332;11.700000
77516;PMS7003;68414;53.946;27.634;2023-03-25T01:19:40;17.783333;17.400000;12.750000
77516;PMS7003;68414;53.946;27.634;2023-03-25T01:20:41;19.433332;17.700001;11.666667
77516;PMS7003;68414;53.946;27.634;2023-03-25T01:21:41;17.250000;15.700000;11.200000
77516;PMS7003;68414;53.946;27.634;2023-03-25T01:22:40;16.683332;16.466667;11.700000
77516;PMS7003;68414;53.946;27.634;2023-03-25T01:23:40;18.450001;17.666666;12.316667
77516;PMS7003;68414;53.946;27.634;2023-03-25T01:24:40;16.016666;15.583333;11.683333
77516;PMS7003;68414;53.946;27.634;2023-03-25T01:25:42;16.400000;15.466666;11.316667
77516;PMS7003;68414;53.946;27.634;2023-03-25T01:26:41;18.133333;17.116667;11.966666
77516;PMS7003;68414;53.946;27.634;2023-03-25T01:27:40;17.433332;16.716667;11.900000
77516;PMS7003;68414;53.946;27.634;2023-03-25T01:28:41;18.566668;18.183332;12.350000
77516;PMS7003;68414;53.946;27.634;2023-03-25T01:29:40;17.916666;16.950001;12.583333
77516;PMS7003;68414;53.946;27.634;2023-03-25T01:30:40;15.550000;15.100000;11.516666
77516;PMS7003;68414;53.946;27.634;2023-03-25T01:31:41;16.583334;16.366667;11.066667
77516;PMS7003;68414;53.946;27.634;2023-03-25T01:32:40;17.799999;16.850000;12.400000
77516;PMS7003;68414;53.946;27.634;2023-03-25T01:33:41;17.783333;17.049999;11.583333
77516;PMS7003;68414;53.946;27.634;2023-03-25T01:34:41;18.933332;17.333334;11.683333
77516;PMS7003;68414;53.946;27.634;2023-03-25T01:35:41;16.316668;15.850000;10.966666
77516;PMS7003;68414;53.946;27.634;2023-03-25T01:36:40;15.950000;15.200000;10.666667
77516;PMS7003;68414;53.946;27.634;2023-03-25T01:37:40;15.683333;14.950000;11.600000
77516;PMS7003;68414;53.946;27.634;2023-03-25T01:38:41;17.233334;16.150000;11.266666
77516;PMS7003;68414;53.946;27.634;2023-03-25T01:39:40;16.983334;16.333334;11.550000
77516;PMS7003;68414;53.946;27.634;2023-03-25T01:40:44;14.750000;14.650000;11.283334
77516;PMS7003;68414;53.946;27.634;2023-03-25T01:41:41;17.033333;16.416666;12.150000
77516;PMS7003;68414;53.946;27.634;2023-03-25T01:42:40;16.033333;15.133333;10.566667
77516;PMS7003;68414;53.946;27.634;2023-03-25T01:43:40;15.133333;14.966666;10.200000
77516;PMS7003;68414;53.946;27.634;2023-03-25T01:45:40;15.366667;14.750000;10.366667
77516;PMS7003;68414;53.946;27.634;2023-03-25T01:46:40;14.600000;14.066667;10.533334
77516;PMS7003;68414;53.946;27.634;2023-03-25T01:47:42;15.383333;15.366667;10.833333
77516;PMS7003;68414;53.946;27.634;2023-03-25T01:48:42;14.216666;13.100000;9.800000
77516;PMS7003;68414;53.946;27.634;2023-03-25T01:49:43;15.533334;14.550000;10.833333
77516;PMS7003;68414;53.946;27.634;2023-03-25T01:50:44;13.716666;13.033334;9.950000
77516;PMS7003;68414;53.946;27.634;2023-03-25T01:51:42;16.083334;15.650000;10.966666
77516;PMS7003;68414;53.946;27.634;2023-03-25T01:52:43;13.733334;13.633333;9.350000
77516;PMS7003;68414;53.946;27.634;2023-03-25T01:53:41;14.516666;13.883333;10.150000
77516;PMS7003;68414;53.946;27.634;2023-03-25T01:54:42;13.283334;13.283334;10.083333
77516;PMS7003;68414;53.946;27.634;2023-03-25T01:55:42;14.200000;13.366667;10.016666
77516;PMS7003;68414;53.946;27.634;2023-03-25T01:56:40;14.133333;13.600000;9.450000
77516;PMS7003;68414;53.946;27.634;2023-03-25T01:57:42;13.116667;13.116667;9.250000
77516;PMS7003;68414;53.946;27.634;2023-03-25T01:58:41;14.433333;14.016666;10.433333
77516;PMS7003;68414;53.946;27.634;2023-03-25T01:59:40;13.483334;12.033334;9.016666
77516;PMS7003;68414;53.946;27.634;2023-03-25T02:00:42;15.600000;14.633333;11.333333
77516;PMS7003;68414;53.946;27.634;2023-03-25T02:01:40;14.666667;14.133333;9.800000
77516;PMS7003;68414;53.946;27.634;2023-03-25T02:02:42;14.416667;13.716666;9.783334
77516;PMS7003;68414;53.946;27.634;2023-03-25T02:03:41;12.450000;12.416667;8.550000
77516;PMS7003;68414;53.946;27.634;2023-03-25T02:04:44;13.966666;13.033334;9.383333
77516;PMS7003;68414;53.946;27.634;2023-03-25T02:06:47;12.950000;12.433333;9.366667
77516;PMS7003;68414;53.946;27.634;2023-03-25T02:07:41;12.233334;12.066667;9.400000
77516;PMS7003;68414;53.946;27.634;2023-03-25T02:08:40;14.383333;14.133333;9.700000
77516;PMS7003;68414;53.946;27.634;2023-03-25T02:09:40;14.716666;14.300000;9.550000
77516;PMS7003;68414;53.946;27.634;2023-03-25T02:11:40;13.700000;13.366667;10.383333
77516;PMS7003;68414;53.946;27.634;2023-03-25T02:12:40;14.966666;14.383333;10.466666
77516;PMS7003;68414;53.946;27.634;2023-03-25T02:13:40;15.850000;15.366667;10.700000
77516;PMS7003;68414;53.946;27.634;2023-03-25T02:14:40;15.433333;14.033334;10.400000
77516;PMS7003;68414;53.946;27.634;2023-03-25T02:17:46;13.450000;13.166667;9.633333
77516;PMS7003;68414;53.946;27.634;2023-03-25T02:40:45;0.700000;0.700000;0.616667
77516;PMS7003;68414;53.946;27.634;2023-03-25T02:44:46;1.216667;0.683333;0.483333
77516;PMS7003;68414;53.946;27.634;2023-03-25T02:46:48;1.250000;1.250000;0.950000
77516;PMS7003;68414;53.946;27.634;2023-03-25T02:47:48;0.850000;0.850000;0.566667
77516;PMS7003;68414;53.946;27.634;2023-03-25T02:49:48;1.866667;1.400000;0.800000
77516;PMS7003;68414;53.946;27.634;2023-03-25T02:50:44;2.050000;1.950000;1.100000
77516;PMS7003;68414;53.946;27.634;2023-03-25T02:52:43;2.450000;1.500000;0.866667
77516;PMS7003;68414;53.946;27.634;2023-03-25T02:53:43;1.283333;1.283333;0.883333
77516;PMS7003;68414;53.946;27.634;2023-03-25T02:54:42;2.083333;1.516667;0.783333
77516;PMS7003;68414;53.946;27.634;2023-03-25T02:55:42;1.666667;1.666667;0.950000
77516;PMS7003;68414;53.946;27.634;2023-03-25T02:56:42;1.333333;1.333333;0.833333
77516;PMS7003;68414;53.946;27.634;2023-03-25T02:57:42;1.950000;1.483333;0.833333
77516;PMS7003;68414;53.946;27.634;2023-03-25T02:58:43;1.783333;1.550000;0.900000
77516;PMS7003;68414;53.946;27.634;2023-03-25T02:59:42;1.783333;1.550000;1.150000
77516;PMS7003;68414;53.946;27.634;2023-03-25T03:00:41;1.383333;1.383333;0.483333
77516;PMS7003;68414;53.946;27.634;2023-03-25T03:01:40;1.383333;1.383333;0.750000
77516;PMS7003;68414;53.946;27.634;2023-03-25T03:03:40;1.066667;0.850000;0.400000
77516;PMS7003;68414;53.946;27.634;2023-03-25T03:04:45;1.783333;1.683333;0.800000
77516;PMS7003;68414;53.946;27.634;2023-03-25T03:06:42;1.600000;1.316667;0.850000
77516;PMS7003;68414;53.946;27.634;2023-03-25T03:07:42;1.350000;1.350000;0.783333
77516;PMS7003;68414;53.946;27.634;2023-03-25T03:08:45;1.100000;1.100000;0.616667
77516;PMS7003;68414;53.946;27.634;2023-03-25T03:10:48;2.700000;1.833333;1.450000
77516;PMS7003;68414;53.946;27.634;2023-03-25T03:14:46;1.933333;1.650000;1.016667
77516;PMS7003;68414;53.946;27.634;2023-03-25T03:26:44;2.050000;1.950000;1.733333
77516;PMS7003;68414;53.946;27.634;2023-03-25T03:30:44;2.083333;2.083333;1.400000
77516;PMS7003;68414;53.946;27.634;2023-03-25T03:31:43;2.083333;2.083333;1.666667
77516;PMS7003;68414;53.946;27.634;2023-03-25T03:33:46;3.000000;2.283333;1.350000
77516;PMS7003;68414;53.946;27.634;2023-03-25T03:34:44;2.533333;1.600000;1.116667
77516;PMS7003;68414;53.946;27.634;2023-03-25T03:35:43;1.883333;1.733333;1.283333
77516;PMS7003;68414;53.946;27.634;2023-03-25T03:37:43;2.600000;2.300000;1.416667
77516;PMS7003;68414;53.946;27.634;2023-03-25T03:38:45;3.816667;3.433333;1.683333
77516;PMS7003;68414;53.946;27.634;2023-03-25T03:39:41;2.400000;1.933333;0.966667
77516;PMS7003;68414;53.946;27.634;2023-03-25T03:40:44;2.233333;2.233333;1.550000
77516;PMS7003;68414;53.946;27.634;2023-03-25T03:41:42;1.933333;1.633333;1.100000
77516;PMS7003;68414;53.946;27.634;2023-03-25T03:42:44;2.516667;2.033333;1.450000
77516;PMS7003;68414;53.946;27.634;2023-03-25T03:43:47;1.866667;1.866667;1.683333
77516;PMS7003;68414;53.946;27.634;2023-03-25T03:44:43;2.250000;2.116667;1.600000
77516;PMS7003;68414;53.946;27.634;2023-03-25T03:47:44;2.983333;2.583333;1.933333
77516;PMS7003;68414;53.946;27.634;2023-03-25T03:50:44;1.333333;1.333333;1.116667
77516;PMS7003;68414;53.946;27.634;2023-03-25T03:51:45;1.683333;1.483333;1.233333
77516;PMS7003;68414;53.946;27.634;2023-03-25T03:52:51;2.333333;1.733333;1.116667
77516;PMS7003;68414;53.946;27.634;2023-03-25T03:53:44;2.150000;2.150000;2.083333
77516;PMS7003;68414;53.946;27.634;2023-03-25T03:55:45;2.350000;2.166667;1.550000
77516;PMS7003;68414;53.946;27.634;2023-03-25T03:56:43;1.700000;1.483333;1.016667
77516;PMS7003;68414;53.946;27.634;2023-03-25T03:57:44;2.100000;1.650000;0.966667
77516;PMS7003;68414;53.946;27.634;2023-03-25T03:58:41;2.716667;2.150000;1.416667
77516;PMS7003;68414;53.946;27.634;2023-03-25T04:00:04;1.716667;1.383333;1.000000
77516;PMS7003;68414;53.946;27.634;2023-03-25T04:02:43;1.116667;1.116667;0.866667
77516;PMS7003;68414;53.946;27.634;2023-03-25T04:04:40;2.866667;2.566667;1.166667
77516;PMS7003;68414;53.946;27.634;2023-03-25T04:05:42;2.233333;2.233333;1.416667
77516;PMS7003;68414;53.946;27.634;2023-03-25T04:07:43;1.733333;1.583333;1.183333
77516;PMS7003;68414;53.946;27.634;2023-03-25T04:08:46;1.333333;1.333333;1.016667
77516;PMS7003;68414;53.946;27.634;2023-03-25T04:10:44;1.400000;1.400000;0.766667
77516;PMS7003;68414;53.946;27.634;2023-03-25T04:11:43;1.966667;1.966667;1.483333
77516;PMS7003;68414;53.946;27.634;2023-03-25T04:12:43;1.733333;1.400000;0.750000
77516;PMS7003;68414;53.946;27.634;2023-03-25T04:13:42;1.633333;1.633333;0.983333
77516;PMS7003;68414;53.946;27.634;2023-03-25T04:14:41;1.333333;1.333333;0.783333
77516;PMS7003;68414;53.946;27.634;2023-03-25T04:15:41;2.033333;1.783333;1.166667
77516;PMS7003;68414;53.946;27.634;2023-03-25T04:16:40;2.133333;1.650000;0.916667
77516;PMS7003;68414;53.946;27.634;2023-03-25T04:17:41;3.533333;2.683333;1.350000
77516;PMS7003;68414;53.946;27.634;2023-03-25T04:18:40;2.783333;2.566667;1.850000
77516;PMS7003;68414;53.946;27.634;2023-03-25T04:19:40;3.650000;2.600000;2.050000
77516;PMS7003;68414;53.946;27.634;2023-03-25T04:20:40;2.883333;2.600000;1.550000
77516;PMS7003;68414;53.946;27.634;2023-03-25T04:21:40;1.733333;1.733333;1.433333
77516;PMS7003;68414;53.946;27.634;2023-03-25T04:22:40;0.966667;0.966667;0.466667
77516;PMS7003;68414;53.946;27.634;2023-03-25T04:23:40;2.333333;2.333333;0.950000
77516;PMS7003;68414;53.946;27.634;2023-03-25T04:24:40;3.750000;3.266667;1.616667
77516;PMS7003;68414;53.946;27.634;2023-03-25T04:25:42;3.083333;1.816667;1.400000
77516;PMS7003;68414;53.946;27.634;2023-03-25T04:26:42;3.250000;2.733333;1.766667
77516;PMS7003;68414;53.946;27.634;2023-03-25T04:27:40;2.016667;1.900000;1.166667
77516;PMS7003;68414;53.946;27.634;2023-03-25T04:28:40;2.600000;2.400000;1.666667
77516;PMS7003;68414;53.946;27.634;2023-03-25T04:29:40;2.900000;2.900000;2.233333
77516;PMS7003;68414;53.946;27.634;2023-03-25T04:30:40;5.583333;4.483333;3.133333
77516;PMS7003;68414;53.946;27.634;2023-03-25T04:31:40;6.050000;4.766667;3.850000
77516;PMS7003;68414;53.946;27.634;2023-03-25T04:32:40;5.283333;4.400000;2.950000
77516;PMS7003;68414;53.946;27.634;2023-03-25T04:33:42;3.700000;3.433333;2.733333
77516;PMS7003;68414;53.946;27.634;2023-03-25T04:34:40;3.016667;3.016667;2.483333
77516;PMS7003;68414;53.946;27.634;2023-03-25T04:35:40;3.450000;3.133333;2.316667
77516;PMS7003;68414;53.946;27.634;2023-03-25T04:36:41;6.266667;5.400000;3.933333
77516;PMS7003;68414;53.946;27.634;2023-03-25T04:37:40;4.800000;3.866667;3.316667
77516;PMS7003;68414;53.946;27.634;2023-03-25T04:38:40;3.716667;3.516667;2.250000
77516;PMS7003;68414;53.946;27.634;2023-03-25T04:39:40;3.283333;2.850000;1.633333
77516;PMS7003;68414;53.946;27.634;2023-03-25T04:40:40;2.700000;2.450000;1.533333
77516;PMS7003;68414;53.946;27.634;2023-03-25T04:41:40;2.650000;2.500000;1.850000
77516;PMS7003;68414;53.946;27.634;2023-03-25T04:42:41;2.383333;2.383333;1.700000
77516;PMS7003;68414;53.946;27.634;2023-03-25T04:43:40;2.066667;2.066667;1.366667
77516;PMS7003;68414;53.946;27.634;2023-03-25T04:44:40;1.966667;1.733333;1.150000
77516;PMS7003;68414;53.946;27.634;2023-03-25T04:45:41;2.400000;1.916667;1.516667
77516;PMS7003;68414;53.946;27.634;2023-03-25T04:46:41;2.166667;1.883333;1.300000
77516;PMS7003;68414;53.946;27.634;2023-03-25T04:47:40;2.250000;2.250000;1.450000
77516;PMS7003;68414;53.946;27.634;2023-03-25T04:48:41;2.516667;2.516667;1.733333
77516;PMS7003;68414;53.946;27.634;2023-03-25T04:49:40;2.500000;1.966667;1.200000
77516;PMS7003;68414;53.946;27.634;2023-03-25T04:50:40;2.433333;2.150000;1.366667
77516;PMS7003;68414;53.946;27.634;2023-03-25T04:51:40;1.766667;1.483333;1.350000
77516;PMS7003;68414;53.946;27.634;2023-03-25T04:52:40;1.550000;1.000000;0.550000
77516;PMS7003;68414;53.946;27.634;2023-03-25T04:53:41;2.183333;1.900000;1.183333
77516;PMS7003;68414;53.946;27.634;2023-03-25T04:54:40;2.583333;2.350000;1.966667
77516;PMS7003;68414;53.946;27.634;2023-03-25T04:55:40;2.600000;2.116667;1.233333
77516;PMS7003;68414;53.946;27.634;2023-03-25T04:56:40;1.283333;1.283333;0.750000
77516;PMS7003;68414;53.946;27.634;2023-03-25T04:57:40;2.300000;2.300000;1.633333
77516;PMS7003;68414;53.946;27.634;2023-03-25T04:58:41;2.583333;2.316667;1.366667
77516;PMS7003;68414;53.946;27.634;2023-03-25T04:59:40;3.350000;2.650000;1.366667
77516;PMS7003;68414;53.946;27.634;2023-03-25T05:00:41;1.966667;1.783333;0.833333
77516;PMS7003;68414;53.946;27.634;2023-03-25T05:01:41;2.716667;2.283333;1.550000
77516;PMS7003;68414;53.946;27.634;2023-03-25T05:02:43;3.016667;2.650000;1.733333
77516;PMS7003;68414;53.946;27.634;2023-03-25T05:03:40;2.200000;2.033333;1.416667
77516;PMS7003;68414;53.946;27.634;2023-03-25T05:04:40;2.750000;2.216667;1.500000
77516;PMS7003;68414;53.946;27.634;2023-03-25T05:05:41;2.383333;2.033333;0.900000
77516;PMS7003;68414;53.946;27.634;2023-03-25T05:06:42;2.916667;2.916667;1.616667
77516;PMS7003;68414;53.946;27.634;2023-03-25T05:07:40;2.483333;2.483333;1.583333
77516;PMS7003;68414;53.946;27.634;2023-03-25T05:08:40;1.866667;1.866667;1.100000
77516;PMS7003;68414;53.946;27.634;2023-03-25T05:09:40;1.783333;1.650000;1.000000
77516;PMS7003;68414;53.946;27.634;2023-03-25T05:10:40;3.850000;2.966667;1.483333
77516;PMS7003;68414;53.946;27.634;2023-03-25T05:11:41;3.733333;2.983333;1.750000
77516;PMS7003;68414;53.946;27.634;2023-03-25T05:12:40;5.900000;5.250000;2.833333
77516;PMS7003;68414;53.946;27.634;2023-03-25T05:13:40;3.583333;3.583333;2.583333
77516;PMS7003;68414;53.946;27.634;2023-03-25T05:14:40;2.150000;2.150000;1.300000
77516;PMS7003;68414;53.946;27.634;2023-03-25T05:15:40;3.433333;2.633333;1.483333
77516;PMS7003;68414;53.946;27.634;2023-03-25T05:16:40;2.583333;2.483333;1.466667
77516;PMS7003;68414;53.946;27.634;2023-03-25T05:17:40;3.366667;2.583333;1.783333
77516;PMS7003;68414;53.946;27.634;2023-03-25T05:18:40;3.300000;2.800000;1.600000
77516;PMS7003;68414;53.946;27.634;2023-03-25T05:19:40;3.216667;3.000000;1.266667
77516;PMS7003;68414;53.946;27.634;2023-03-25T05:20:43;2.566667;1.716667;1.100000
77516;PMS7003;68414;53.946;27.634;2023-03-25T05:21:40;1.700000;1.566667;0.566667
77516;PMS7003;68414;53.946;27.634;2023-03-25T05:22:40;1.733333;1.733333;1.200000
77516;PMS7003;68414;53.946;27.634;2023-03-25T05:23:40;2.166667;2.116667;1.516667
77516;PMS7003;68414;53.946;27.634;2023-03-25T05:24:40;2.533333;2.033333;0.733333
77516;PMS7003;68414;53.946;27.634;2023-03-25T05:25:41;1.350000;1.350000;0.783333
77516;PMS7003;68414;53.946;27.634;2023-03-25T05:26:41;4.633333;3.900000;1.950000
77516;PMS7003;68414;53.946;27.634;2023-03-25T05:27:40;2.550000;1.783333;1.433333
77516;PMS7003;68414;53.946;27.634;2023-03-25T05:28:40;2.266667;2.266667;1.600000
77516;PMS7003;68414;53.946;27.634;2023-03-25T05:29:40;2.516667;1.783333;1.100000
77516;PMS7003;68414;53.946;27.634;2023-03-25T05:30:41;2.283333;1.750000;1.016667
77516;PMS7003;68414;53.946;27.634;2023-03-25T05:31:42;2.083333;1.816667;1.216667
77516;PMS7003;68414;53.946;27.634;2023-03-25T05:32:41;1.133333;1.050000;0.816667
77516;PMS7003;68414;53.946;27.634;2023-03-25T05:33:40;2.150000;2.150000;0.983333
77516;PMS7003;68414;53.946;27.634;2023-03-25T05:34:40;1.150000;1.150000;0.600000
77516;PMS7003;68414;53.946;27.634;2023-03-25T05:35:41;2.733333;2.733333;1.550000
77516;PMS7003;68414;53.946;27.634;2023-03-25T05:36:42;3.416667;2.750000;1.766667
77516;PMS7003;68414;53.946;27.634;2023-03-25T05:37:40;1.666667;1.633333;1.083333
77516;PMS7003;68414;53.946;27.634;2023-03-25T05:38:40;2.316667;1.933333;1.216667
77516;PMS7003;68414;53.946;27.634;2023-03-25T05:39:45;2.283333;2.283333;1.566667
77516;PMS7003;68414;53.946;27.634;2023-03-25T05:40:42;2.866667;2.350000;1.783333
77516;PMS7003;68414;53.946;27.634;2023-03-25T05:41:40;4.233333;3.550000;2.416667
77516;PMS7003;68414;53.946;27.634;2023-03-25T05:42:40;3.000000;3.000000;2.150000
77516;PMS7003;68414;53.946;27.634;2023-03-25T05:43:42;3.066667;2.516667;1.933333
77516;PMS7003;68414;53.946;27.634;2023-03-25T05:44:43;3.283333;3.000000;2.033333
77516;PMS7003;68414;53.946;27.634;2023-03-25T05:45:41;2.866667;2.866667;2.050000
77516;PMS7003;68414;53.946;27.634;2023-03-25T05:46:42;3.266667;3.083333;1.500000
77516;PMS7003;68414;53.946;27.634;2023-03-25T05:47:42;3.250000;2.800000;1.850000
77516;PMS7003;68414;53.946;27.634;2023-03-25T05:48:40;3.716667;3.250000;2.683333
77516;PMS7003;68414;53.946;27.634;2023-03-25T05:49:40;3.633333;3.166667;2.216667
77516;PMS7003;68414;53.946;27.634;2023-03-25T05:50:42;2.950000;2.550000;2.133333
77516;PMS7003;68414;53.946;27.634;2023-03-25T05:51:40;3.966667;2.750000;1.366667
77516;PMS7003;68414;53.946;27.634;2023-03-25T05:52:40;3.483333;3.233333;1.816667
77516;PMS7003;68414;53.946;27.634;2023-03-25T05:53:41;2.800000;2.800000;1.950000
77516;PMS7003;68414;53.946;27.634;2023-03-25T05:54:40;3.016667;3.016667;2.166667
77516;PMS7003;68414;53.946;27.634;2023-03-25T05:55:40;4.266667;3.133333;2.583333